createdAt,value
2022-09-05T00:00:11.481Z,4.37
2022-09-05T00:03:01.163Z,7.93
2022-09-05T00:06:02.139Z,5.77
2022-09-05T00:08:39.202Z,4.60
2022-09-05T00:11:41.426Z,5.43
2022-09-05T00:15:16.766Z,4.70
2022-09-05T00:23:06.145Z,4.33
2022-09-05T00:24:26.773Z,4.60
2022-09-05T00:24:33.158Z,3.53
2022-09-05T00:27:21.974Z,5.87
2022-09-05T00:31:08.930Z,4.57
2022-09-05T00:33:16.863Z,6.83
2022-09-05T00:36:20.730Z,4.03
2022-09-05T00:39:19.171Z,4.17
2022-09-05T00:41:52.969Z,4.40
2022-09-05T00:44:23.249Z,4.17
2022-09-05T00:47:14.427Z,5.30
2022-09-05T00:49:48.197Z,4.40
2022-09-05T00:52:27.723Z,5.27
2022-09-05T00:55:21.122Z,4.43
2022-09-05T00:58:00.151Z,6.33
2022-09-05T01:00:48.985Z,5.03
2022-09-05T01:03:37.458Z,6.93
2022-09-05T01:06:34.833Z,7.43
2022-09-05T01:09:22.714Z,6.70
2022-09-05T01:12:09.602Z,7.83
2022-09-05T01:15:03.025Z,8.00
2022-09-05T01:17:38.579Z,7.40
2022-09-05T01:20:20.147Z,7.00
2022-09-05T01:23:08.256Z,7.40
2022-09-05T01:25:47.000Z,5.23
2022-09-05T01:29:15.254Z,5.20
2022-09-05T01:31:54.012Z,4.57
2022-09-05T01:34:49.611Z,6.00
2022-09-05T01:37:40.661Z,4.37
2022-09-05T01:40:19.450Z,4.30
2022-09-05T01:43:14.367Z,4.67
2022-09-05T01:45:50.777Z,4.90
2022-09-05T01:48:38.246Z,6.63
2022-09-05T01:51:29.381Z,6.27
2022-09-05T01:54:23.688Z,5.87
2022-09-05T01:57:10.788Z,5.80
2022-09-05T02:00:22.566Z,7.40
2022-09-05T02:02:56.924Z,7.80
2022-09-05T02:08:14.909Z,7.50
2022-09-05T02:11:03.839Z,7.00
2022-09-05T02:13:37.012Z,6.40
2022-09-05T02:16:27.013Z,6.47
2022-09-05T02:19:10.623Z,5.97
2022-09-05T02:21:56.647Z,5.10
2022-09-05T02:24:48.851Z,6.10
2022-09-05T02:27:59.222Z,5.57
2022-09-05T02:30:10.822Z,6.47
2022-09-05T02:32:39.239Z,6.07
2022-09-05T02:35:10.141Z,5.53
2022-09-05T02:41:37.023Z,5.17
2022-09-05T02:45:04.076Z,4.87
2022-09-05T02:45:20.005Z,8.47
2022-09-05T02:46:31.393Z,5.37
2022-09-05T02:49:43.167Z,6.53
2022-09-05T02:57:30.163Z,5.03
2022-09-05T02:57:35.595Z,5.97
2022-09-05T02:58:10.700Z,4.93
2022-09-05T03:01:06.631Z,4.90
2022-09-05T03:04:00.937Z,5.77
2022-09-05T03:06:49.983Z,5.90
2022-09-05T03:10:04.823Z,8.37
2022-09-05T03:13:15.062Z,5.57
2022-09-05T03:16:05.936Z,7.40
2022-09-05T03:19:10.348Z,5.20
2022-09-05T03:22:14.066Z,5.73
2022-09-05T03:25:11.978Z,6.10
2022-09-05T03:28:19.461Z,5.33
2022-09-05T03:31:22.005Z,7.10
2022-09-05T03:34:11.320Z,5.67
2022-09-05T03:37:00.748Z,6.17
2022-09-05T03:40:15.786Z,7.80
2022-09-05T03:42:48.830Z,5.87
2022-09-05T03:45:42.075Z,6.73
2022-09-05T03:48:32.416Z,7.00
2022-09-05T03:57:12.367Z,9.20
2022-09-05T03:57:16.513Z,6.70
2022-09-05T03:58:18.097Z,6.30
2022-09-05T04:01:10.558Z,7.00
2022-09-05T04:08:15.982Z,7.10
2022-09-05T04:08:26.761Z,7.13
2022-09-05T04:09:57.513Z,6.00
2022-09-05T04:13:03.124Z,6.80
2022-09-05T04:15:36.353Z,7.70
2022-09-05T04:18:17.522Z,7.03
2022-09-05T04:21:25.486Z,7.30
2022-09-05T04:24:13.290Z,8.87
2022-09-05T04:27:01.831Z,7.17
2022-09-05T04:29:39.783Z,9.37
2022-09-05T04:32:18.974Z,10.53
2022-09-05T04:35:01.743Z,10.30
2022-09-05T04:37:50.199Z,8.90
2022-09-05T04:40:55.082Z,8.67
2022-09-05T04:43:41.021Z,8.83
2022-09-05T04:46:22.267Z,9.07
2022-09-05T04:49:20.467Z,9.50
2022-09-05T04:52:14.789Z,8.50
2022-09-05T04:55:17.815Z,12.33
2022-09-05T04:58:10.994Z,9.87
2022-09-05T05:04:26.080Z,9.27
2022-09-05T05:06:13.902Z,10.67
2022-09-05T05:06:45.881Z,11.73
2022-09-05T05:09:22.715Z,10.30
2022-09-05T05:18:01.161Z,9.47
2022-09-05T05:18:07.793Z,9.63
2022-09-05T05:18:39.669Z,10.63
2022-09-05T05:21:14.058Z,10.17
2022-09-05T05:24:01.876Z,9.33
2022-09-05T05:26:43.356Z,14.00
2022-09-05T05:29:19.423Z,14.83
2022-09-05T05:31:53.515Z,10.23
2022-09-05T05:34:27.095Z,10.47
2022-09-05T05:37:25.091Z,9.33
2022-09-05T05:40:11.807Z,8.60
2022-09-05T05:42:42.026Z,7.90
2022-09-05T05:45:28.185Z,7.10
2022-09-05T05:48:04.292Z,6.73
2022-09-05T05:50:43.444Z,7.83
2022-09-05T05:53:37.405Z,6.43
2022-09-05T05:56:39.129Z,6.23
2022-09-05T05:59:28.458Z,6.77
2022-09-05T06:02:40.091Z,6.37
2022-09-05T06:05:41.569Z,7.78
2022-09-05T06:14:47.950Z,7.67
2022-09-05T06:14:51.158Z,6.60
2022-09-05T06:15:22.008Z,6.97
2022-09-05T06:17:53.516Z,6.43
2022-09-05T06:22:06.058Z,6.50
2022-09-05T06:24:06.601Z,6.30
2022-09-05T06:26:36.480Z,11.55
2022-09-05T06:29:25.547Z,9.93
2022-09-05T06:32:34.069Z,6.93
2022-09-05T06:35:06.971Z,9.68
2022-09-05T06:37:44.662Z,9.80
2022-09-05T06:40:49.250Z,9.50
2022-09-05T06:43:45.034Z,7.47
2022-09-05T06:46:54.785Z,7.87
2022-09-05T06:49:35.834Z,8.38
2022-09-05T06:52:36.103Z,7.07
2022-09-05T06:55:31.214Z,9.65
2022-09-05T06:58:22.279Z,5.65
2022-09-05T07:00:51.795Z,7.40
2022-09-05T07:03:56.920Z,7.25
2022-09-05T07:07:01.726Z,6.47
2022-09-05T07:09:54.206Z,4.85
2022-09-05T07:12:32.960Z,5.80
2022-09-05T07:18:09.096Z,6.18
2022-09-05T07:21:16.691Z,7.07
2022-09-05T07:24:09.831Z,7.93
2022-09-05T07:26:52.315Z,7.80
2022-09-05T07:29:29.896Z,7.00
2022-09-05T07:31:59.947Z,5.47
2022-09-05T07:34:31.987Z,4.78
2022-09-05T07:37:13.915Z,6.30
2022-09-05T07:39:50.575Z,4.90
2022-09-05T07:42:34.073Z,7.90
2022-09-05T07:45:11.303Z,8.25
2022-09-05T07:47:59.892Z,7.18
2022-09-05T07:53:18.680Z,4.82
2022-09-05T07:56:54.387Z,4.75
2022-09-05T07:57:04.126Z,4.22
2022-09-05T07:58:55.811Z,7.22
2022-09-05T08:01:25.254Z,7.05
2022-09-05T08:03:56.453Z,32.20
2022-09-05T08:07:24.252Z,14.40
2022-09-05T08:10:06.856Z,7.85
2022-09-05T08:12:27.667Z,6.03
2022-09-05T08:15:10.407Z,5.20
2022-09-05T08:18:14.132Z,6.25
2022-09-05T08:20:59.216Z,4.97
2022-09-05T08:23:50.907Z,6.15
2022-09-05T08:26:36.381Z,7.07
2022-09-05T08:29:15.353Z,10.85
2022-09-05T08:32:11.587Z,4.78
2022-09-05T08:34:48.113Z,5.20
2022-09-05T08:37:23.078Z,9.50
2022-09-05T08:40:11.001Z,6.38
2022-09-05T08:42:49.401Z,4.80
2022-09-05T08:46:41.707Z,3.92
2022-09-05T08:48:58.289Z,7.18
2022-09-05T08:51:55.633Z,6.15
2022-09-05T08:54:34.800Z,4.47
2022-09-05T08:57:31.573Z,4.95
2022-09-05T09:00:19.571Z,4.65
2022-09-05T09:02:52.686Z,5.13
2022-09-05T09:06:13.414Z,4.60
2022-09-05T09:09:18.624Z,3.72
2022-09-05T09:12:02.817Z,6.45
2022-09-05T09:14:36.082Z,3.88
2022-09-05T09:17:06.822Z,2.90
2022-09-05T09:19:55.787Z,6.70
2022-09-05T09:22:40.022Z,4.60
2022-09-05T09:25:26.396Z,13.38
2022-09-05T09:28:50.403Z,4.53
2022-09-05T09:31:26.775Z,4.68
2022-09-05T09:34:08.846Z,2.60
2022-09-05T09:37:08.703Z,7.22
2022-09-05T09:40:16.573Z,3.70
2022-09-05T09:42:56.082Z,3.60
2022-09-05T09:45:29.667Z,4.20
2022-09-05T09:48:06.693Z,4.35
2022-09-05T09:50:58.942Z,3.00
2022-09-05T09:53:37.238Z,2.85
2022-09-05T09:56:38.575Z,4.97
2022-09-05T09:59:54.506Z,4.65
2022-09-05T10:07:35.471Z,7.18
2022-09-05T10:10:51.337Z,5.35
2022-09-05T10:10:52.850Z,5.32
2022-09-05T10:12:07.649Z,4.13
2022-09-05T10:14:51.040Z,2.97
2022-09-05T10:17:34.890Z,2.97
2022-09-05T10:20:15.196Z,5.93
2022-09-05T10:23:03.280Z,3.08
2022-09-05T10:25:48.164Z,4.38
2022-09-05T10:28:34.065Z,3.50
2022-09-05T10:33:19.914Z,3.97
2022-09-05T10:35:14.103Z,3.20
2022-09-05T10:37:15.005Z,3.90
2022-09-05T10:39:51.455Z,5.13
2022-09-05T10:42:35.748Z,1.67
2022-09-05T10:45:36.345Z,3.83
2022-09-05T10:48:24.809Z,1.85
2022-09-05T10:51:27.442Z,1.67
2022-09-05T10:54:23.063Z,3.83
2022-09-05T10:56:57.824Z,2.22
2022-09-05T11:02:19.544Z,5.68
2022-09-05T11:02:49.193Z,7.57
2022-09-05T11:05:30.956Z,4.78
2022-09-05T11:08:13.984Z,2.10
2022-09-05T11:11:09.084Z,2.08
2022-09-05T11:13:50.149Z,1.80
2022-09-05T11:16:49.252Z,3.17
2022-09-05T11:19:24.613Z,2.40
2022-09-05T11:22:03.981Z,2.83
2022-09-05T11:24:57.930Z,4.40
2022-09-05T11:27:48.982Z,2.95
2022-09-05T11:30:30.979Z,3.03
2022-09-05T11:39:47.372Z,4.07
2022-09-05T11:39:52.062Z,3.38
2022-09-05T11:40:06.814Z,2.40
2022-09-05T11:42:58.112Z,2.03
2022-09-05T11:45:38.254Z,2.30
2022-09-05T11:48:26.411Z,2.03
2022-09-05T11:51:34.433Z,1.60
2022-09-05T11:54:27.660Z,2.95
2022-09-05T11:57:32.094Z,2.13
2022-09-05T12:00:28.211Z,4.07
2022-09-05T12:03:53.542Z,1.65
2022-09-05T12:06:31.188Z,6.78
2022-09-05T12:09:23.599Z,2.55
2022-09-05T12:12:41.040Z,3.28
2022-09-05T12:15:34.567Z,1.67
2022-09-05T12:18:19.253Z,2.13
2022-09-05T12:20:55.519Z,1.85
2022-09-05T12:23:53.972Z,3.78
2022-09-05T12:27:41.797Z,3.72
2022-09-05T12:29:29.513Z,2.85
2022-09-05T12:33:11.386Z,2.35
2022-09-05T12:36:05.918Z,2.75
2022-09-05T12:40:55.372Z,2.92
2022-09-05T12:41:40.806Z,2.15
2022-09-05T12:44:39.325Z,3.33
2022-09-05T12:47:19.133Z,2.97
2022-09-05T12:50:14.995Z,1.80
2022-09-05T12:52:46.751Z,3.95
2022-09-05T12:55:17.200Z,3.90
2022-09-05T13:02:02.852Z,2.42
2022-09-05T13:03:04.084Z,2.30
2022-09-05T13:03:53.708Z,4.25
2022-09-05T13:06:40.943Z,6.93
2022-09-05T13:09:16.787Z,2.10
2022-09-05T13:14:57.340Z,5.60
2022-09-05T13:15:20.017Z,6.40
2022-09-05T13:18:13.332Z,2.60
2022-09-05T13:21:02.411Z,3.08
2022-09-05T13:23:35.860Z,1.67
2022-09-05T13:26:19.646Z,3.08
2022-09-05T13:29:18.020Z,6.00
2022-09-05T13:37:55.782Z,2.15
2022-09-05T13:38:04.294Z,2.35
2022-09-05T13:38:14.435Z,3.35
2022-09-05T13:40:41.912Z,3.00
2022-09-05T13:43:15.631Z,3.67
2022-09-05T13:46:05.185Z,3.65
2022-09-05T13:51:54.303Z,2.38
2022-09-05T13:54:21.448Z,5.47
2022-09-05T13:56:56.726Z,2.97
2022-09-05T13:59:25.348Z,2.55
2022-09-05T14:02:27.744Z,2.45
2022-09-05T14:05:37.324Z,1.73
2022-09-05T14:12:19.676Z,1.73
2022-09-05T14:15:10.133Z,2.17
2022-09-05T14:18:20.147Z,3.55
2022-09-05T14:21:16.035Z,3.28
2022-09-05T14:24:03.240Z,4.38
2022-09-05T14:26:50.559Z,4.43
2022-09-05T14:29:25.232Z,4.40
2022-09-05T14:37:35.381Z,2.67
2022-09-05T14:37:54.946Z,1.90
2022-09-05T14:38:15.663Z,4.05
2022-09-05T14:41:21.077Z,2.83
2022-09-05T14:43:56.907Z,3.15
2022-09-05T14:46:30.327Z,1.77
2022-09-05T14:49:15.513Z,1.40
2022-09-05T14:51:48.050Z,2.85
2022-09-05T15:01:37.450Z,2.67
2022-09-05T15:02:51.649Z,3.90
2022-09-05T15:03:04.879Z,2.22
2022-09-05T15:05:40.100Z,3.28
2022-09-05T15:08:22.736Z,3.53
2022-09-05T15:12:21.805Z,2.67
2022-09-05T15:13:57.316Z,5.45
2022-09-05T15:16:25.930Z,3.13
2022-09-05T15:18:53.581Z,1.98
2022-09-05T15:21:34.265Z,2.72
2022-09-05T15:24:04.573Z,3.08
2022-09-05T15:26:53.135Z,1.50
2022-09-05T15:29:25.682Z,2.60
2022-09-05T15:32:09.127Z,2.22
2022-09-05T15:34:38.718Z,3.45
2022-09-05T15:37:23.131Z,3.83
2022-09-05T15:40:23.231Z,1.65
2022-09-05T15:42:59.051Z,2.95
2022-09-05T15:45:32.712Z,2.95
2022-09-05T15:48:26.259Z,1.50
2022-09-05T15:51:08.005Z,5.00
2022-09-05T15:53:37.607Z,7.43
2022-09-05T15:56:10.479Z,5.97
2022-09-05T15:58:55.085Z,3.50
2022-09-05T16:01:45.051Z,5.82
2022-09-05T16:08:32.761Z,2.65
2022-09-05T16:10:45.712Z,3.67
2022-09-05T16:10:49.816Z,2.80
2022-09-05T16:12:47.206Z,3.63
2022-09-05T16:17:51.149Z,1.88
2022-09-05T16:23:23.754Z,1.52
2022-09-05T16:23:34.525Z,5.25
2022-09-05T16:24:08.023Z,3.42
2022-09-05T16:26:43.340Z,2.33
2022-09-05T16:29:23.904Z,2.72
2022-09-05T16:32:10.311Z,5.88
2022-09-05T16:35:02.265Z,1.77
2022-09-05T16:37:52.329Z,1.30
2022-09-05T16:40:22.016Z,2.78
2022-09-05T16:43:19.382Z,2.25
2022-09-05T16:46:04.636Z,1.42
2022-09-05T16:48:55.156Z,2.03
2022-09-05T16:51:45.619Z,3.80
2022-09-05T16:54:22.749Z,2.28
2022-09-05T16:56:55.059Z,2.38
2022-09-05T17:02:25.181Z,1.60
2022-09-05T17:05:20.952Z,1.60
2022-09-05T17:08:09.931Z,2.40
2022-09-05T17:10:55.877Z,1.92
2022-09-05T17:13:38.914Z,2.17
2022-09-05T17:16:10.493Z,2.75
2022-09-05T17:18:38.590Z,4.00
2022-09-05T17:21:13.129Z,4.15
2022-09-05T17:29:23.729Z,2.13
2022-09-05T17:29:24.239Z,2.92
2022-09-05T17:31:27.798Z,2.45
2022-09-05T17:32:51.598Z,2.22
2022-09-05T17:36:02.817Z,4.30
2022-09-05T17:38:59.760Z,3.13
2022-09-05T17:41:51.090Z,2.50
2022-09-05T17:47:23.009Z,6.38
2022-09-05T17:53:24.922Z,3.65
2022-09-05T17:58:49.986Z,3.92
2022-09-05T18:01:19.950Z,4.22
2022-09-05T18:03:51.254Z,3.33
2022-09-05T18:06:18.716Z,3.20
2022-09-05T18:08:46.557Z,4.45
2022-09-05T18:11:25.337Z,2.17
2022-09-05T18:14:01.363Z,6.15
2022-09-05T18:17:35.336Z,2.40
2022-09-05T18:22:41.443Z,2.75
2022-09-05T18:25:28.716Z,3.78
2022-09-05T18:28:22.543Z,4.57
2022-09-05T18:30:50.071Z,3.47
2022-09-05T18:33:53.490Z,3.33
2022-09-05T18:36:27.709Z,4.70
2022-09-05T18:39:29.358Z,3.10
2022-09-05T18:42:26.178Z,2.75
2022-09-05T18:45:15.234Z,3.22
2022-09-05T18:47:51.077Z,5.38
2022-09-05T18:50:27.796Z,3.83
2022-09-05T18:53:10.393Z,2.60
2022-09-05T18:56:13.637Z,6.25
2022-09-05T18:58:51.605Z,3.50
2022-09-05T19:03:58.561Z,6.47
2022-09-05T19:06:35.127Z,4.90
2022-09-05T19:09:14.669Z,4.97
2022-09-05T19:12:31.645Z,7.63
2022-09-05T19:15:08.171Z,4.65
2022-09-05T19:20:32.694Z,5.03
2022-09-05T19:23:13.252Z,4.15
2022-09-05T19:36:44.335Z,5.45
2022-09-05T19:36:50.962Z,6.13
2022-09-05T19:37:09.248Z,3.50
2022-09-05T19:37:29.488Z,3.45
2022-09-05T19:43:48.400Z,4.80
2022-09-05T19:47:34.473Z,5.93
2022-09-05T19:47:36.099Z,4.95
2022-09-05T19:48:35.038Z,3.95
2022-09-05T19:51:18.081Z,4.90
2022-09-05T19:56:58.329Z,3.90
2022-09-05T19:59:38.583Z,7.60
2022-09-05T20:05:19.062Z,6.00
2022-09-05T20:07:54.627Z,6.65
2022-09-05T20:10:30.016Z,4.55
2022-09-05T20:12:57.843Z,5.72
2022-09-05T20:18:27.707Z,4.35
2022-09-05T21:05:24.128Z,4.55
2022-09-05T21:08:07.161Z,5.07
2022-09-05T21:10:55.699Z,9.15
2022-09-05T21:13:35.562Z,6.13
2022-09-05T21:16:13.228Z,6.28
2022-09-05T21:18:43.576Z,4.68
2022-09-05T21:21:31.739Z,5.05
2022-09-05T21:24:17.286Z,4.82
2022-09-05T21:26:48.650Z,5.53
2022-09-05T21:29:24.958Z,6.07
2022-09-05T21:32:00.446Z,5.13
2022-09-05T21:34:32.119Z,7.15
2022-09-05T21:37:07.561Z,3.47
2022-09-05T21:39:59.776Z,3.75
2022-09-05T21:44:07.363Z,5.68
2022-09-05T21:47:47.587Z,7.80
2022-09-05T21:48:15.139Z,4.13
2022-09-05T21:50:53.605Z,6.03
2022-09-05T21:57:58.734Z,5.03
2022-09-05T21:59:17.271Z,7.82
2022-09-05T22:02:08.502Z,5.93
2022-09-05T22:04:40.787Z,5.63
2022-09-05T22:07:14.393Z,6.63
2022-09-05T22:09:41.375Z,3.88
2022-09-05T22:12:30.085Z,5.45
2022-09-05T22:14:56.150Z,5.15
2022-09-05T22:17:24.733Z,6.88
2022-09-05T22:19:52.708Z,6.30
2022-09-05T22:22:20.907Z,5.20
2022-09-05T22:24:56.882Z,4.78
2022-09-05T22:27:27.373Z,4.70
2022-09-05T22:29:57.590Z,5.22
2022-09-05T22:32:34.822Z,6.15
2022-09-05T22:35:15.951Z,4.75
2022-09-05T22:38:00.361Z,8.45
2022-09-05T22:40:31.463Z,5.63
2022-09-05T22:43:03.922Z,5.38
2022-09-05T22:45:32.864Z,4.05
2022-09-05T22:48:06.284Z,4.72
2022-09-05T22:50:33.224Z,4.15
2022-09-05T22:53:00.480Z,4.97
2022-09-05T22:55:27.499Z,7.07
2022-09-05T22:57:54.377Z,4.30
2022-09-05T23:00:21.471Z,4.90
2022-09-05T23:02:52.449Z,4.45
2022-09-05T23:05:19.849Z,5.88
2022-09-05T23:07:46.712Z,4.25
2022-09-05T23:10:13.665Z,4.78
2022-09-05T23:12:40.659Z,5.60
2022-09-05T23:15:08.011Z,6.45
2022-09-05T23:17:34.996Z,6.75
2022-09-05T23:20:02.446Z,6.47
2022-09-05T23:22:29.378Z,4.03
2022-09-05T23:24:56.575Z,6.53
2022-09-05T23:27:23.785Z,4.65
2022-09-05T23:29:50.750Z,6.50
2022-09-05T23:32:17.726Z,4.90
2022-09-05T23:34:44.845Z,7.72
2022-09-05T23:37:11.799Z,7.10
2022-09-05T23:39:38.827Z,4.10
2022-09-05T23:42:05.889Z,5.13
2022-09-05T23:44:32.794Z,4.30
2022-09-05T23:47:00.185Z,8.13
2022-09-05T23:49:27.093Z,5.82
2022-09-05T23:51:54.565Z,4.97
2022-09-05T23:54:21.516Z,7.00
2022-09-05T23:56:48.557Z,5.70
2022-09-05T23:59:15.502Z,6.05
